Foehn-Box 4     en développement                      
EPHEMERIDE     (heures GMT)
Lever Zenith Coucher
3:46:6 11:34:51 19:23:31

Validation GPS le : 21-6-24 5:17  (GMT)

BATTERIE : 4.21      SOLAIRE : 0.30

SIGNAL : 13.99 ALTITUDE : 2099

FOEHN-BOX 4           Date :  24/06/2021   
Heure Vent
instant
Vent
moyen
Vent
mini
Vent
maxi
Direction
vent
Tempe
-rature
Pression
Humidite
22:05:13 0 0 0 0 23.1 798.1 44.9
22:00:13 0 0 0 0 23.0 797.9 44.9
21:55:13 0 0 0 0 22.9 797.9 45.5
21:50:13 0 0 0 0 22.9 797.9 45.0
21:45:13 0 0 0 0 23.0 797.8 45.9
21:40:13 0 0 0 0 22.9 797.7 46.1
21:35:13 0 0 0 0 22.8 797.8 46.3
21:30:13 0 0 0 0 22.7 797.7 46.8
21:25:13 0 0 0 0 22.5 797.8 49.7
21:20:13 0 0 0 0 22.5 797.7 46.7
21:15:13 0 0 0 0 22.6 797.8 46.6
21:10:13 0 0 0 0 22.5 797.6 46.7
21:05:21 0 0 0 0 22.5 797.6 46.8
21:00:15 0 0 0 0 22.6 797.4 46.5
20:55:13 0 0 0 0 22.5 797.5 46.9
20:50:13 0 0 0 0 22.5 797.5 46.7
20:45:13 0 0 0 0 22.6 797.6 47.2
20:40:13 0 0 0 0 22.5 797.5 47.4
20:35:13 0 0 0 0 22.6 797.5 47.3
20:30:13 0 0 0 0 22.6 797.5 46.9
20:25:13 0 0 0 0 22.6 797.4 47.1
20:20:14 0 0 0 0 22.5 797.4 48.0
20:15:13 0 0 0 0 22.4 797.4 48.0
20:10:13 0 0 0 0 22.2 797.4 48.0
20:05:13 0 0 0 0 22.1 797.4 48.3
20:00:13 0 0 0 0 22.0 797.3 46.2
19:55:13 0 0 0 0 21.9 797.3 45.4
19:50:13 0 0 0 0 21.9 797.4 46.8
19:45:13 0 0 0 0 21.8 797.3 43.4
19:40:13 0 0 0 0 21.6 797.2 43.4
19:35:13 0 0 0 0 21.4 797.1 43.7
19:30:13 0 0 0 0 21.3 797.0 44.3
19:25:13 0 0 0 0 21.4 797.3 44.2
19:20:21 0 0 0 0 21.4 797.3 44.5
19:15:13 0 0 0 0 22.5 797.6 46.8
19:10:13 0 0 0 0 21.4 797.3 45.0
19:05:13 0 0 0 0 21.6 797.3 45.0
19:00:13 0 0 0 0 21.7 797.2 45.3
18:55:13 0 0 0 0 22.1 797.3 44.2
18:50:13 0 0 0 0 22.4 797.4 44.1
18:45:13 0 0 0 0 22.5 797.1 45.9
18:40:13 0 0 0 0 22.4 797.1 45.9
18:35:13 0 0 0 0 22.3 797.2 47.6
18:30:14 0 0 0 0 22.4 797.6 45.7
18:25:13 0 0 0 0 22.3 797.1 45.7
18:20:13 0 0 0 0 22.2 797.1 47.6
18:15:13 0 0 0 0 22.1 797.1 46.1
18:10:13 0 0 0 0 22.0 797.1 46.1
18:05:13 0 0 0 0 21.9 797.0 47.8
18:00:13 0 0 0 0 21.9 797.1 47.8
17:55:13 0 0 0 0 21.8 797.1 50.2
17:50:13 0 0 0 0 21.7 797.0 46.3
17:45:13 0 0 0 0 21.6 796.9 46.4
17:40:13 0 0 0 0 21.5 797.1 46.0
17:35:13 0 0 0 0 21.4 797.1 46.3
17:30:13 0 0 0 0 21.4 797.3 44.5
17:25:13 0 0 0 0 21.4 797.2 46.7
17:20:13 0 0 0 0 21.1 797.0 47.2
17:15:13 0 0 0 0 21.0 797.0 46.3
17:10:13 0 0 0 0 23.1 798.1 44.9
17:05:13 0 0 0 0 23.0 797.9 44.9
17:00:13 0 0 0 0 20.9 797.3 45.4
16:55:13 0 0 0 0 22.9 797.9 45.0
16:50:13 0 0 0 0 23.0 797.8 45.9
16:45:13 0 0 0 0 22.9 797.7 46.1
16:40:13 0 0 0 0 22.8 797.8 46.3
16:35:13 0 0 0 0 22.7 797.7 46.8
16:30:13 0 0 0 0 22.5 797.8 49.7
16:25:13 0 0 0 0 22.5 797.7 46.7
16:20:13 0 0 0 0 22.6 797.8 46.6
16:15:13 0 0 0 0 22.5 797.6 46.7
16:10:13 0 0 0 0 20.7 797.0 43.9
16:05:13 0 0 0 0 22.6 797.4 46.5
16:00:13 0 0 0 0 20.8 796.9 44.0
15:55:17 0 0 0 0 22.5 797.5 46.7
15:50:13 0 0 0 0 22.6 797.6 47.2
15:45:13 0 0 0 0 22.5 797.5 47.4
15:40:13 0 0 0 0 22.6 797.5 47.3
15:35:13 0 0 0 0 22.6 797.5 46.9
15:30:13 0 0 0 0 22.6 797.4 47.1
15:25:13 0 0 0 0 22.5 797.4 48.0
15:20:13 0 0 0 0 22.4 797.4 48.0
15:15:13 0 0 0 0 22.2 797.4 48.0
15:10:13 0 0 0 0 22.1 797.4 48.3
15:05:13 0 0 0 0 22.0 797.3 46.2
15:00:13 0 0 0 0 21.3 796.0 46.1
14:55:13 0 0 0 0 21.9 797.4 46.8
14:50:13 0 0 0 0 21.8 797.3 43.4
14:45:13 0 0 0 0 21.6 797.2 43.4
14:40:13 0 0 0 0 21.4 797.1 43.7
14:35:13 0 0 0 0 21.3 797.0 44.3
14:30:13 0 0 0 0 21.4 797.3 44.2
14:25:15 0 0 0 0 21.4 794.9 46.9
14:20:13 0 0 0 0 22.5 797.6 46.8
14:15:13 0 0 0 0 21.4 797.3 45.0
14:10:14 0 0 0 0 21.6 797.3 45.0
14:05:13 0 0 0 0 21.7 797.2 45.3
14:00:13 0 0 0 0 21.4 794.8 46.0
13:55:13 0 0 0 0 22.4 797.4 44.1
13:50:13 0 0 0 0 22.5 797.1 45.9
13:45:13 0 0 0 0 22.4 797.1 45.9
13:40:13 0 0 0 0 22.3 797.2 47.6
13:35:13 0 0 0 0 22.4 797.6 45.7
13:30:13 0 0 0 0 22.3 797.1 45.7
13:25:13 0 0 0 0 22.2 797.1 47.6
13:20:13 0 0 0 0 22.1 797.1 46.1
13:15:13 0 0 0 0 21.3 794.9 48.0
13:10:13 0 0 0 0 21.9 797.0 47.8
13:05:13 0 0 0 0 21.9 797.1 47.8
13:00:13 0 0 0 0 21.3 794.9 47.5
12:55:13 0 0 0 0 21.7 797.0 46.3
12:50:13 0 0 0 0 21.6 796.9 46.4
12:45:13 0 0 0 0 21.5 797.1 46.0
12:40:13 0 0 0 0 21.4 797.1 46.3
12:35:13 0 0 0 0 21.4 797.3 44.5
12:30:13 0 0 0 0 21.4 797.2 46.7
12:25:13 0 0 0 0 21.1 797.0 47.2
12:20:14 0 0 0 0 21.0 797.0 46.3
12:15:13 0 0 0 0 23.1 798.1 44.9
12:10:13 0 0 0 0 23.0 797.9 44.9
12:05:13 0 0 0 0 20.9 797.3 45.4
12:00:13 0 0 0 0 21.1 795.6 47.6
11:55:13 0 0 0 0 23.0 797.8 45.9
11:50:13 0 0 0 0 22.9 797.7 46.1
11:45:13 0 0 0 0 22.8 797.8 46.3
11:40:13 0 0 0 0 22.7 797.7 46.8
11:35:13 0 0 0 0 22.5 797.8 49.7
11:30:13 0 0 0 0 22.5 797.7 46.7
11:25:13 0 0 0 0 22.6 797.8 46.6
11:20:13 0 0 0 0 22.5 797.6 46.7
11:15:13 0 0 0 0 20.7 797.0 43.9
11:10:13 0 0 0 0 22.6 797.4 46.5
11:05:13 0 0 0 0 20.8 796.9 44.0
11:00:13 0 0 0 0 21.1 795.5 47.4
10:55:13 0 0 0 0 22.6 797.6 47.2
10:50:13 0 0 0 0 22.5 797.5 47.4
10:45:15 0 0 0 0 22.6 797.5 47.3
10:40:13 0 0 0 0 22.6 797.5 46.9
10:35:13 0 0 0 0 22.6 797.4 47.1
10:30:13 0 0 0 0 22.5 797.4 48.0
10:25:13 0 0 0 0 22.4 797.4 48.0
10:20:13 0 0 0 0 22.2 797.4 48.0
10:15:13 0 0 0 0 22.1 797.4 48.3
10:10:13 0 0 0 0 22.0 797.3 46.2
10:05:13 0 0 0 0 21.3 796.0 46.1
10:00:13 0 0 0 0 21.1 795.7 48.2
09:55:13 0 0 0 0 21.8 797.3 43.4
09:50:13 0 0 0 0 21.6 797.2 43.4
09:45:13 0 0 0 0 21.4 797.1 43.7
09:40:13 0 0 0 0 21.3 797.0 44.3
09:35:14 0 0 0 0 21.4 797.3 44.2
09:30:13 0 0 0 0 21.4 794.9 46.9
09:25:14 0 0 0 0 22.5 797.6 46.8
09:20:13 0 0 0 0 21.4 797.3 45.0
09:15:13 0 0 0 0 21.6 797.3 45.0
09:10:14 0 0 0 0 21.7 797.2 45.3
09:05:13 0 0 0 0 21.4 794.8 46.0
09:00:13 0 0 0 0 21.3 795.6 47.5
08:55:13 0 0 0 0 22.5 797.1 45.9
08:50:13 0 0 0 0 22.4 797.1 45.9
08:45:13 0 0 0 0 22.3 797.2 47.6
08:40:13 0 0 0 0 22.4 797.6 45.7
08:35:13 0 0 0 0 22.3 797.1 45.7
08:30:13 0 0 0 0 22.2 797.1 47.6
08:25:13 0 0 0 0 22.1 797.1 46.1
08:20:14 0 0 0 0 21.3 794.9 48.0
08:15:13 0 0 0 0 21.9 797.0 47.8
08:10:13 0 0 0 0 21.9 797.1 47.8
08:05:13 0 0 0 0 21.3 794.9 47.5
08:00:13 0 0 0 0 21.4 795.3 46.9
07:55:13 0 0 0 0 21.6 796.9 46.4
07:50:13 0 0 0 0 21.5 797.1 46.0
07:45:13 0 0 0 0 21.4 797.1 46.3
07:40:13 0 0 0 0 21.4 797.3 44.5
07:35:13 0 0 0 0 21.4 797.2 46.7
07:30:14 0 0 0 0 21.1 797.0 47.2
07:25:13 0 0 0 0 21.0 797.0 46.3
07:20:20 0 0 0 0 23.1 798.1 44.9